sensor_id;sensor_type;location;lat;lon;timestamp;P1;durP1;ratioP1;P2;durP2;ratioP2
26050;SDS011;13825;53.496;10.020;2022-10-31T00:01:32;15.87;;;9.60;;
26050;SDS011;13825;53.496;10.020;2022-10-31T00:04:11;16.50;;;9.83;;
26050;SDS011;13825;53.496;10.020;2022-10-31T00:06:38;14.37;;;10.03;;
26050;SDS011;13825;53.496;10.020;2022-10-31T00:09:09;14.47;;;10.20;;
26050;SDS011;13825;53.496;10.020;2022-10-31T00:11:37;15.87;;;9.83;;
26050;SDS011;13825;53.496;10.020;2022-10-31T00:14:04;13.87;;;9.07;;
26050;SDS011;13825;53.496;10.020;2022-10-31T00:16:33;14.47;;;9.87;;
26050;SDS011;13825;53.496;10.020;2022-10-31T00:19:01;13.50;;;9.70;;
26050;SDS011;13825;53.496;10.020;2022-10-31T00:21:29;15.20;;;9.07;;
26050;SDS011;13825;53.496;10.020;2022-10-31T00:24:03;13.00;;;9.13;;
26050;SDS011;13825;53.496;10.020;2022-10-31T00:26:33;14.40;;;9.33;;
26050;SDS011;13825;53.496;10.020;2022-10-31T00:29:00;12.23;;;8.20;;
26050;SDS011;13825;53.496;10.020;2022-10-31T00:31:27;12.47;;;8.37;;
26050;SDS011;13825;53.496;10.020;2022-10-31T00:33:54;12.47;;;8.97;;
26050;SDS011;13825;53.496;10.020;2022-10-31T00:36:28;13.50;;;8.80;;
26050;SDS011;13825;53.496;10.020;2022-10-31T00:38:55;11.37;;;8.10;;
26050;SDS011;13825;53.496;10.020;2022-10-31T00:41:26;12.57;;;8.30;;
26050;SDS011;13825;53.496;10.020;2022-10-31T00:43:55;12.77;;;8.37;;
26050;SDS011;13825;53.496;10.020;2022-10-31T00:46:24;10.23;;;7.57;;
26050;SDS011;13825;53.496;10.020;2022-10-31T00:48:58;10.87;;;7.57;;
26050;SDS011;13825;53.496;10.020;2022-10-31T00:51:25;9.43;;;7.80;;
26050;SDS011;13825;53.496;10.020;2022-10-31T00:53:52;8.83;;;7.23;;
26050;SDS011;13825;53.496;10.020;2022-10-31T00:56:19;7.03;;;5.90;;
26050;SDS011;13825;53.496;10.020;2022-10-31T00:58:49;7.93;;;6.23;;
26050;SDS011;13825;53.496;10.020;2022-10-31T01:01:17;7.73;;;6.40;;
26050;SDS011;13825;53.496;10.020;2022-10-31T01:03:44;6.57;;;5.90;;
26050;SDS011;13825;53.496;10.020;2022-10-31T01:06:19;7.53;;;6.73;;
26050;SDS011;13825;53.496;10.020;2022-10-31T01:08:53;7.53;;;5.97;;
26050;SDS011;13825;53.496;10.020;2022-10-31T01:11:20;8.00;;;6.77;;
26050;SDS011;13825;53.496;10.020;2022-10-31T01:13:51;6.90;;;5.87;;
26050;SDS011;13825;53.496;10.020;2022-10-31T01:16:29;8.67;;;6.63;;
26050;SDS011;13825;53.496;10.020;2022-10-31T01:18:56;12.00;;;7.30;;
26050;SDS011;13825;53.496;10.020;2022-10-31T01:21:24;8.70;;;6.97;;
26050;SDS011;13825;53.496;10.020;2022-10-31T01:23:54;12.97;;;8.53;;
26050;SDS011;13825;53.496;10.020;2022-10-31T01:26:22;20.47;;;12.27;;
26050;SDS011;13825;53.496;10.020;2022-10-31T01:28:55;24.97;;;12.63;;
26050;SDS011;13825;53.496;10.020;2022-10-31T01:31:28;33.00;;;17.17;;
26050;SDS011;13825;53.496;10.020;2022-10-31T01:33:58;31.20;;;16.30;;
26050;SDS011;13825;53.496;10.020;2022-10-31T01:36:26;35.07;;;18.20;;
26050;SDS011;13825;53.496;10.020;2022-10-31T01:38:58;30.33;;;18.50;;
26050;SDS011;13825;53.496;10.020;2022-10-31T01:41:28;33.80;;;19.27;;
26050;SDS011;13825;53.496;10.020;2022-10-31T01:43:59;39.60;;;20.90;;
26050;SDS011;13825;53.496;10.020;2022-10-31T01:46:42;39.87;;;19.67;;
26050;SDS011;13825;53.496;10.020;2022-10-31T01:49:13;38.93;;;21.23;;
26050;SDS011;13825;53.496;10.020;2022-10-31T01:51:45;41.47;;;21.90;;
26050;SDS011;13825;53.496;10.020;2022-10-31T01:54:16;36.10;;;21.13;;
26050;SDS011;13825;53.496;10.020;2022-10-31T01:56:53;46.93;;;21.73;;
26050;SDS011;13825;53.496;10.020;2022-10-31T01:59:24;39.20;;;21.27;;
26050;SDS011;13825;53.496;10.020;2022-10-31T02:01:57;40.40;;;21.40;;
26050;SDS011;13825;53.496;10.020;2022-10-31T02:04:24;54.50;;;21.87;;
26050;SDS011;13825;53.496;10.020;2022-10-31T02:06:55;41.63;;;21.27;;
26050;SDS011;13825;53.496;10.020;2022-10-31T02:09:24;44.90;;;22.07;;
26050;SDS011;13825;53.496;10.020;2022-10-31T02:11:56;39.07;;;21.37;;
26050;SDS011;13825;53.496;10.020;2022-10-31T02:14:29;47.57;;;22.27;;
26050;SDS011;13825;53.496;10.020;2022-10-31T02:16:58;41.97;;;22.03;;
26050;SDS011;13825;53.496;10.020;2022-10-31T02:19:28;44.47;;;22.20;;
26050;SDS011;13825;53.496;10.020;2022-10-31T02:22:08;42.47;;;21.20;;
26050;SDS011;13825;53.496;10.020;2022-10-31T02:24:46;39.60;;;21.83;;
26050;SDS011;13825;53.496;10.020;2022-10-31T02:30:27;42.07;;;20.27;;
26050;SDS011;13825;53.496;10.020;2022-10-31T02:33:09;37.63;;;19.43;;
26050;SDS011;13825;53.496;10.020;2022-10-31T02:35:57;38.80;;;20.07;;
26050;SDS011;13825;53.496;10.020;2022-10-31T02:38:37;38.17;;;20.83;;
26050;SDS011;13825;53.496;10.020;2022-10-31T02:41:15;44.60;;;20.57;;
26050;SDS011;13825;53.496;10.020;2022-10-31T02:43:50;44.80;;;21.37;;
26050;SDS011;13825;53.496;10.020;2022-10-31T02:46:28;37.20;;;19.97;;
26050;SDS011;13825;53.496;10.020;2022-10-31T02:49:05;45.67;;;21.53;;
26050;SDS011;13825;53.496;10.020;2022-10-31T02:51:38;42.00;;;19.77;;
26050;SDS011;13825;53.496;10.020;2022-10-31T02:54:15;45.73;;;21.20;;
26050;SDS011;13825;53.496;10.020;2022-10-31T02:56:51;43.07;;;20.57;;
26050;SDS011;13825;53.496;10.020;2022-10-31T02:59:21;42.80;;;20.87;;
26050;SDS011;13825;53.496;10.020;2022-10-31T03:01:58;48.23;;;20.37;;
26050;SDS011;13825;53.496;10.020;2022-10-31T03:04:48;39.17;;;20.23;;
26050;SDS011;13825;53.496;10.020;2022-10-31T03:07:42;38.13;;;19.13;;
26050;SDS011;13825;53.496;10.020;2022-10-31T03:10:16;40.20;;;20.80;;
26050;SDS011;13825;53.496;10.020;2022-10-31T03:12:49;39.13;;;19.43;;
26050;SDS011;13825;53.496;10.020;2022-10-31T03:15:26;38.33;;;19.10;;
26050;SDS011;13825;53.496;10.020;2022-10-31T03:17:57;34.00;;;18.77;;
26050;SDS011;13825;53.496;10.020;2022-10-31T03:20:30;32.43;;;17.37;;
26050;SDS011;13825;53.496;10.020;2022-10-31T03:23:04;47.03;;;18.77;;
26050;SDS011;13825;53.496;10.020;2022-10-31T03:25:37;41.37;;;19.73;;
26050;SDS011;13825;53.496;10.020;2022-10-31T03:28:07;40.47;;;19.50;;
26050;SDS011;13825;53.496;10.020;2022-10-31T03:30:36;39.17;;;19.07;;
26050;SDS011;13825;53.496;10.020;2022-10-31T03:33:09;48.73;;;20.03;;
26050;SDS011;13825;53.496;10.020;2022-10-31T03:35:40;44.23;;;19.77;;
26050;SDS011;13825;53.496;10.020;2022-10-31T03:38:11;38.37;;;19.70;;
26050;SDS011;13825;53.496;10.020;2022-10-31T03:40:40;35.57;;;18.80;;
26050;SDS011;13825;53.496;10.020;2022-10-31T03:43:10;44.80;;;22.37;;
26050;SDS011;13825;53.496;10.020;2022-10-31T03:45:43;41.77;;;21.37;;
26050;SDS011;13825;53.496;10.020;2022-10-31T03:48:12;50.37;;;20.83;;
26050;SDS011;13825;53.496;10.020;2022-10-31T03:50:43;42.73;;;20.97;;
26050;SDS011;13825;53.496;10.020;2022-10-31T03:53:14;41.87;;;21.43;;
26050;SDS011;13825;53.496;10.020;2022-10-31T03:55:47;39.70;;;20.80;;
26050;SDS011;13825;53.496;10.020;2022-10-31T03:58:19;45.63;;;21.67;;
26050;SDS011;13825;53.496;10.020;2022-10-31T04:00:53;44.23;;;21.37;;
26050;SDS011;13825;53.496;10.020;2022-10-31T04:03:24;42.47;;;21.40;;
26050;SDS011;13825;53.496;10.020;2022-10-31T04:05:55;41.67;;;21.03;;
26050;SDS011;13825;53.496;10.020;2022-10-31T04:08:38;45.00;;;21.27;;
26050;SDS011;13825;53.496;10.020;2022-10-31T04:11:08;44.17;;;21.00;;
26050;SDS011;13825;53.496;10.020;2022-10-31T04:13:40;46.97;;;22.47;;
26050;SDS011;13825;53.496;10.020;2022-10-31T04:16:14;46.80;;;21.33;;
26050;SDS011;13825;53.496;10.020;2022-10-31T04:18:53;42.73;;;21.63;;
26050;SDS011;13825;53.496;10.020;2022-10-31T04:21:36;46.47;;;22.20;;
26050;SDS011;13825;53.496;10.020;2022-10-31T04:24:05;50.77;;;21.80;;
26050;SDS011;13825;53.496;10.020;2022-10-31T04:26:36;45.40;;;21.13;;
26050;SDS011;13825;53.496;10.020;2022-10-31T04:29:05;45.83;;;23.33;;
26050;SDS011;13825;53.496;10.020;2022-10-31T04:31:32;46.50;;;23.73;;
26050;SDS011;13825;53.496;10.020;2022-10-31T04:34:13;49.27;;;24.27;;
26050;SDS011;13825;53.496;10.020;2022-10-31T04:36:57;53.30;;;23.10;;
26050;SDS011;13825;53.496;10.020;2022-10-31T04:39:24;47.60;;;23.33;;
26050;SDS011;13825;53.496;10.020;2022-10-31T04:42:02;51.37;;;23.43;;
26050;SDS011;13825;53.496;10.020;2022-10-31T04:44:39;49.53;;;23.03;;
26050;SDS011;13825;53.496;10.020;2022-10-31T04:47:15;48.13;;;23.60;;
26050;SDS011;13825;53.496;10.020;2022-10-31T04:49:44;47.70;;;23.17;;
26050;SDS011;13825;53.496;10.020;2022-10-31T04:52:27;54.53;;;24.70;;
26050;SDS011;13825;53.496;10.020;2022-10-31T04:54:54;52.97;;;24.93;;
26050;SDS011;13825;53.496;10.020;2022-10-31T04:57:21;50.50;;;23.37;;
26050;SDS011;13825;53.496;10.020;2022-10-31T04:59:48;46.07;;;23.03;;
26050;SDS011;13825;53.496;10.020;2022-10-31T05:02:17;48.87;;;24.07;;
26050;SDS011;13825;53.496;10.020;2022-10-31T05:04:50;56.50;;;23.77;;
26050;SDS011;13825;53.496;10.020;2022-10-31T05:07:19;47.07;;;23.90;;
26050;SDS011;13825;53.496;10.020;2022-10-31T05:10:03;49.07;;;23.97;;
26050;SDS011;13825;53.496;10.020;2022-10-31T05:12:31;55.23;;;25.60;;
26050;SDS011;13825;53.496;10.020;2022-10-31T05:15:00;57.20;;;25.40;;
26050;SDS011;13825;53.496;10.020;2022-10-31T05:17:35;53.77;;;24.53;;
26050;SDS011;13825;53.496;10.020;2022-10-31T05:20:10;54.13;;;25.40;;
26050;SDS011;13825;53.496;10.020;2022-10-31T05:22:41;62.13;;;24.40;;
26050;SDS011;13825;53.496;10.020;2022-10-31T05:25:19;56.43;;;25.33;;
26050;SDS011;13825;53.496;10.020;2022-10-31T05:28:06;61.43;;;25.43;;
26050;SDS011;13825;53.496;10.020;2022-10-31T05:33:36;60.80;;;24.67;;
26050;SDS011;13825;53.496;10.020;2022-10-31T05:36:10;59.70;;;25.87;;
26050;SDS011;13825;53.496;10.020;2022-10-31T05:38:40;63.87;;;24.77;;
26050;SDS011;13825;53.496;10.020;2022-10-31T05:41:14;60.60;;;25.30;;
26050;SDS011;13825;53.496;10.020;2022-10-31T05:43:44;54.07;;;24.47;;
26050;SDS011;13825;53.496;10.020;2022-10-31T05:46:14;64.53;;;25.60;;
26050;SDS011;13825;53.496;10.020;2022-10-31T05:48:51;97.30;;;50.27;;
26050;SDS011;13825;53.496;10.020;2022-10-31T05:51:36;62.70;;;26.10;;
26050;SDS011;13825;53.496;10.020;2022-10-31T05:54:05;61.83;;;29.07;;
26050;SDS011;13825;53.496;10.020;2022-10-31T05:56:41;63.27;;;23.70;;
26050;SDS011;13825;53.496;10.020;2022-10-31T05:59:12;64.30;;;23.97;;
26050;SDS011;13825;53.496;10.020;2022-10-31T06:01:38;63.97;;;24.80;;
26050;SDS011;13825;53.496;10.020;2022-10-31T06:04:07;53.13;;;24.37;;
26050;SDS011;13825;53.496;10.020;2022-10-31T06:06:35;62.03;;;24.63;;
26050;SDS011;13825;53.496;10.020;2022-10-31T06:09:02;51.90;;;23.00;;
26050;SDS011;13825;53.496;10.020;2022-10-31T06:11:29;54.50;;;23.37;;
26050;SDS011;13825;53.496;10.020;2022-10-31T06:13:58;55.63;;;25.70;;
26050;SDS011;13825;53.496;10.020;2022-10-31T06:16:25;53.83;;;22.83;;
26050;SDS011;13825;53.496;10.020;2022-10-31T06:18:57;90.33;;;41.87;;
26050;SDS011;13825;53.496;10.020;2022-10-31T06:21:24;55.00;;;24.43;;
26050;SDS011;13825;53.496;10.020;2022-10-31T06:23:51;49.53;;;22.43;;
26050;SDS011;13825;53.496;10.020;2022-10-31T06:26:23;50.90;;;20.47;;
26050;SDS011;13825;53.496;10.020;2022-10-31T06:29:17;50.13;;;20.50;;
26050;SDS011;13825;53.496;10.020;2022-10-31T06:31:44;45.60;;;22.10;;
26050;SDS011;13825;53.496;10.020;2022-10-31T06:34:12;50.03;;;21.53;;
26050;SDS011;13825;53.496;10.020;2022-10-31T06:36:45;51.80;;;22.40;;
26050;SDS011;13825;53.496;10.020;2022-10-31T06:39:12;46.20;;;22.40;;
26050;SDS011;13825;53.496;10.020;2022-10-31T06:41:42;53.00;;;22.03;;
26050;SDS011;13825;53.496;10.020;2022-10-31T06:44:09;43.70;;;19.77;;
26050;SDS011;13825;53.496;10.020;2022-10-31T06:46:38;50.77;;;20.57;;
26050;SDS011;13825;53.496;10.020;2022-10-31T06:49:09;44.57;;;19.53;;
26050;SDS011;13825;53.496;10.020;2022-10-31T06:51:39;42.67;;;18.87;;
26050;SDS011;13825;53.496;10.020;2022-10-31T06:54:06;46.87;;;19.60;;
26050;SDS011;13825;53.496;10.020;2022-10-31T06:56:33;47.47;;;19.87;;
26050;SDS011;13825;53.496;10.020;2022-10-31T06:59:02;49.33;;;19.93;;
26050;SDS011;13825;53.496;10.020;2022-10-31T07:01:38;42.07;;;18.73;;
26050;SDS011;13825;53.496;10.020;2022-10-31T07:04:05;40.73;;;19.47;;
26050;SDS011;13825;53.496;10.020;2022-10-31T07:06:35;38.17;;;18.70;;
26050;SDS011;13825;53.496;10.020;2022-10-31T07:09:07;45.53;;;19.07;;
26050;SDS011;13825;53.496;10.020;2022-10-31T07:11:35;39.53;;;19.50;;
26050;SDS011;13825;53.496;10.020;2022-10-31T07:14:02;41.27;;;19.47;;
26050;SDS011;13825;53.496;10.020;2022-10-31T07:16:32;46.67;;;19.53;;
26050;SDS011;13825;53.496;10.020;2022-10-31T07:19:04;39.07;;;19.30;;
26050;SDS011;13825;53.496;10.020;2022-10-31T07:21:31;43.67;;;19.13;;
26050;SDS011;13825;53.496;10.020;2022-10-31T07:24:00;42.37;;;18.57;;
26050;SDS011;13825;53.496;10.020;2022-10-31T07:26:35;45.87;;;20.67;;
26050;SDS011;13825;53.496;10.020;2022-10-31T07:31:46;42.47;;;18.80;;
26050;SDS011;13825;53.496;10.020;2022-10-31T07:34:28;44.43;;;19.20;;
26050;SDS011;13825;53.496;10.020;2022-10-31T07:36:55;39.43;;;18.03;;
26050;SDS011;13825;53.496;10.020;2022-10-31T07:39:49;39.73;;;16.83;;
26050;SDS011;13825;53.496;10.020;2022-10-31T07:42:17;34.80;;;16.77;;
26050;SDS011;13825;53.496;10.020;2022-10-31T07:44:44;33.87;;;17.23;;
26050;SDS011;13825;53.496;10.020;2022-10-31T07:47:11;35.27;;;16.97;;
26050;SDS011;13825;53.496;10.020;2022-10-31T07:49:46;32.37;;;16.73;;
26050;SDS011;13825;53.496;10.020;2022-10-31T07:52:32;38.53;;;16.20;;
26050;SDS011;13825;53.496;10.020;2022-10-31T07:55:11;33.87;;;17.10;;
26050;SDS011;13825;53.496;10.020;2022-10-31T07:58:12;38.60;;;16.20;;
26050;SDS011;13825;53.496;10.020;2022-10-31T08:00:45;34.53;;;16.70;;
26050;SDS011;13825;53.496;10.020;2022-10-31T08:06:16;41.57;;;16.93;;
26050;SDS011;13825;53.496;10.020;2022-10-31T08:08:47;40.23;;;18.03;;
26050;SDS011;13825;53.496;10.020;2022-10-31T08:11:29;39.93;;;17.87;;
26050;SDS011;13825;53.496;10.020;2022-10-31T08:14:03;36.30;;;17.17;;
26050;SDS011;13825;53.496;10.020;2022-10-31T08:16:33;42.50;;;17.83;;
26050;SDS011;13825;53.496;10.020;2022-10-31T08:19:00;39.93;;;17.27;;
26050;SDS011;13825;53.496;10.020;2022-10-31T08:21:33;34.83;;;16.80;;
26050;SDS011;13825;53.496;10.020;2022-10-31T08:24:11;29.67;;;15.97;;
26050;SDS011;13825;53.496;10.020;2022-10-31T08:26:48;34.27;;;16.53;;
26050;SDS011;13825;53.496;10.020;2022-10-31T08:29:27;37.97;;;17.07;;
26050;SDS011;13825;53.496;10.020;2022-10-31T08:31:59;35.03;;;16.23;;
26050;SDS011;13825;53.496;10.020;2022-10-31T08:34:27;38.70;;;17.67;;
26050;SDS011;13825;53.496;10.020;2022-10-31T08:36:59;42.87;;;18.30;;
26050;SDS011;13825;53.496;10.020;2022-10-31T08:39:27;39.93;;;18.70;;
26050;SDS011;13825;53.496;10.020;2022-10-31T08:42:04;38.73;;;16.50;;
26050;SDS011;13825;53.496;10.020;2022-10-31T08:44:34;34.07;;;15.63;;
26050;SDS011;13825;53.496;10.020;2022-10-31T08:47:02;33.53;;;15.83;;
26050;SDS011;13825;53.496;10.020;2022-10-31T08:49:29;32.23;;;15.57;;
26050;SDS011;13825;53.496;10.020;2022-10-31T08:52:02;32.37;;;15.40;;
26050;SDS011;13825;53.496;10.020;2022-10-31T08:54:30;38.03;;;15.80;;
26050;SDS011;13825;53.496;10.020;2022-10-31T08:56:59;27.57;;;13.90;;
26050;SDS011;13825;53.496;10.020;2022-10-31T08:59:26;28.40;;;14.70;;
26050;SDS011;13825;53.496;10.020;2022-10-31T09:01:55;30.30;;;14.63;;
26050;SDS011;13825;53.496;10.020;2022-10-31T09:04:24;28.30;;;14.13;;
26050;SDS011;13825;53.496;10.020;2022-10-31T09:06:51;30.83;;;14.50;;
26050;SDS011;13825;53.496;10.020;2022-10-31T09:09:29;31.37;;;14.60;;
26050;SDS011;13825;53.496;10.020;2022-10-31T09:12:11;28.90;;;13.93;;
26050;SDS011;13825;53.496;10.020;2022-10-31T09:17:26;32.50;;;14.67;;
26050;SDS011;13825;53.496;10.020;2022-10-31T09:18:18;31.40;;;14.63;;
26050;SDS011;13825;53.496;10.020;2022-10-31T09:20:57;35.77;;;15.80;;
26050;SDS011;13825;53.496;10.020;2022-10-31T09:23:32;34.67;;;15.63;;
26050;SDS011;13825;53.496;10.020;2022-10-31T09:32:54;38.73;;;16.87;;
26050;SDS011;13825;53.496;10.020;2022-10-31T09:35:41;32.17;;;13.53;;
26050;SDS011;13825;53.496;10.020;2022-10-31T09:38:11;32.93;;;16.57;;
26050;SDS011;13825;53.496;10.020;2022-10-31T09:50:28;36.80;;;16.20;;
26050;SDS011;13825;53.496;10.020;2022-10-31T09:53:20;37.63;;;16.70;;
26050;SDS011;13825;53.496;10.020;2022-10-31T09:56:41;37.57;;;16.33;;
26050;SDS011;13825;53.496;10.020;2022-10-31T09:59:16;33.17;;;16.13;;
26050;SDS011;13825;53.496;10.020;2022-10-31T10:01:57;35.67;;;16.07;;
26050;SDS011;13825;53.496;10.020;2022-10-31T10:05:00;30.27;;;16.03;;
26050;SDS011;13825;53.496;10.020;2022-10-31T10:07:44;43.23;;;16.93;;
26050;SDS011;13825;53.496;10.020;2022-10-31T10:10:44;42.07;;;16.40;;
26050;SDS011;13825;53.496;10.020;2022-10-31T10:13:57;41.83;;;17.43;;
26050;SDS011;13825;53.496;10.020;2022-10-31T10:17:15;38.60;;;16.47;;
26050;SDS011;13825;53.496;10.020;2022-10-31T10:20:10;35.10;;;16.50;;
26050;SDS011;13825;53.496;10.020;2022-10-31T10:23:01;35.97;;;15.50;;
26050;SDS011;13825;53.496;10.020;2022-10-31T10:25:56;30.77;;;13.20;;
26050;SDS011;13825;53.496;10.020;2022-10-31T10:28:31;31.97;;;15.53;;
26050;SDS011;13825;53.496;10.020;2022-10-31T10:31:06;31.20;;;13.77;;
26050;SDS011;13825;53.496;10.020;2022-10-31T10:33:54;27.67;;;14.60;;
26050;SDS011;13825;53.496;10.020;2022-10-31T10:36:32;33.27;;;17.30;;
26050;SDS011;13825;53.496;10.020;2022-10-31T10:39:13;32.90;;;15.53;;
26050;SDS011;13825;53.496;10.020;2022-10-31T10:41:48;34.33;;;15.33;;
26050;SDS011;13825;53.496;10.020;2022-10-31T10:44:35;36.63;;;16.50;;
26050;SDS011;13825;53.496;10.020;2022-10-31T10:47:29;30.70;;;14.83;;
26050;SDS011;13825;53.496;10.020;2022-10-31T10:50:13;33.20;;;15.57;;
26050;SDS011;13825;53.496;10.020;2022-10-31T10:52:51;30.87;;;15.27;;
26050;SDS011;13825;53.496;10.020;2022-10-31T10:55:34;30.67;;;14.93;;
26050;SDS011;13825;53.496;10.020;2022-10-31T10:58:16;33.57;;;15.17;;
26050;SDS011;13825;53.496;10.020;2022-10-31T11:01:08;31.40;;;14.80;;
26050;SDS011;13825;53.496;10.020;2022-10-31T11:06:37;27.17;;;14.73;;
26050;SDS011;13825;53.496;10.020;2022-10-31T11:09:08;31.63;;;15.00;;
26050;SDS011;13825;53.496;10.020;2022-10-31T11:11:40;29.30;;;14.83;;
26050;SDS011;13825;53.496;10.020;2022-10-31T11:14:11;30.70;;;15.47;;
26050;SDS011;13825;53.496;10.020;2022-10-31T11:16:40;33.37;;;15.53;;
26050;SDS011;13825;53.496;10.020;2022-10-31T11:19:13;36.07;;;16.47;;
26050;SDS011;13825;53.496;10.020;2022-10-31T11:22:04;29.57;;;14.63;;
26050;SDS011;13825;53.496;10.020;2022-10-31T11:24:39;32.33;;;14.43;;
26050;SDS011;13825;53.496;10.020;2022-10-31T11:27:16;36.67;;;16.33;;
26050;SDS011;13825;53.496;10.020;2022-10-31T11:29:49;32.60;;;15.90;;
26050;SDS011;13825;53.496;10.020;2022-10-31T11:32:24;33.43;;;16.00;;
26050;SDS011;13825;53.496;10.020;2022-10-31T11:35:00;29.17;;;14.77;;
26050;SDS011;13825;53.496;10.020;2022-10-31T11:37:30;29.87;;;15.90;;
26050;SDS011;13825;53.496;10.020;2022-10-31T11:40:03;31.50;;;16.13;;
26050;SDS011;13825;53.496;10.020;2022-10-31T11:42:39;26.70;;;14.03;;
26050;SDS011;13825;53.496;10.020;2022-10-31T11:45:18;23.57;;;13.30;;
26050;SDS011;13825;53.496;10.020;2022-10-31T11:47:56;24.97;;;12.83;;
26050;SDS011;13825;53.496;10.020;2022-10-31T11:50:27;26.63;;;12.70;;
26050;SDS011;13825;53.496;10.020;2022-10-31T11:53:00;26.40;;;12.50;;
26050;SDS011;13825;53.496;10.020;2022-10-31T11:55:44;25.70;;;13.80;;
26050;SDS011;13825;53.496;10.020;2022-10-31T11:58:25;24.60;;;11.90;;
26050;SDS011;13825;53.496;10.020;2022-10-31T12:00:55;21.33;;;11.60;;
26050;SDS011;13825;53.496;10.020;2022-10-31T12:06:10;21.80;;;11.20;;
26050;SDS011;13825;53.496;10.020;2022-10-31T12:08:42;19.67;;;10.77;;
26050;SDS011;13825;53.496;10.020;2022-10-31T12:11:13;22.27;;;10.90;;
26050;SDS011;13825;53.496;10.020;2022-10-31T12:13:58;20.30;;;10.80;;
26050;SDS011;13825;53.496;10.020;2022-10-31T12:16:36;21.20;;;11.67;;
26050;SDS011;13825;53.496;10.020;2022-10-31T12:19:13;19.20;;;10.57;;
26050;SDS011;13825;53.496;10.020;2022-10-31T12:21:55;20.00;;;9.73;;
26050;SDS011;13825;53.496;10.020;2022-10-31T12:27:29;15.57;;;9.10;;
26050;SDS011;13825;53.496;10.020;2022-10-31T12:30:17;14.43;;;8.27;;
26050;SDS011;13825;53.496;10.020;2022-10-31T12:32:51;12.90;;;7.73;;
26050;SDS011;13825;53.496;10.020;2022-10-31T12:35:36;15.00;;;8.40;;
26050;SDS011;13825;53.496;10.020;2022-10-31T12:38:24;13.03;;;8.30;;
26050;SDS011;13825;53.496;10.020;2022-10-31T12:41:21;16.23;;;9.00;;
26050;SDS011;13825;53.496;10.020;2022-10-31T12:44:08;12.77;;;7.93;;
26050;SDS011;13825;53.496;10.020;2022-10-31T12:46:53;12.80;;;7.70;;
26050;SDS011;13825;53.496;10.020;2022-10-31T12:49:35;12.87;;;7.73;;
26050;SDS011;13825;53.496;10.020;2022-10-31T12:55:13;11.90;;;7.77;;
26050;SDS011;13825;53.496;10.020;2022-10-31T12:57:52;11.63;;;7.43;;
26050;SDS011;13825;53.496;10.020;2022-10-31T13:00:23;14.73;;;8.83;;
26050;SDS011;13825;53.496;10.020;2022-10-31T13:02:54;13.73;;;8.57;;
26050;SDS011;13825;53.496;10.020;2022-10-31T13:05:25;12.27;;;8.23;;
26050;SDS011;13825;53.496;10.020;2022-10-31T13:07:55;12.83;;;6.93;;
26050;SDS011;13825;53.496;10.020;2022-10-31T13:10:27;11.83;;;6.13;;
26050;SDS011;13825;53.496;10.020;2022-10-31T13:12:59;10.77;;;6.70;;
26050;SDS011;13825;53.496;10.020;2022-10-31T13:15:32;10.77;;;5.73;;
26050;SDS011;13825;53.496;10.020;2022-10-31T13:18:06;10.67;;;6.33;;
26050;SDS011;13825;53.496;10.020;2022-10-31T13:20:41;9.83;;;6.57;;
26050;SDS011;13825;53.496;10.020;2022-10-31T13:23:10;9.63;;;6.13;;
26050;SDS011;13825;53.496;10.020;2022-10-31T13:25:48;11.33;;;6.57;;
26050;SDS011;13825;53.496;10.020;2022-10-31T13:28:23;11.10;;;6.90;;
26050;SDS011;13825;53.496;10.020;2022-10-31T13:30:55;12.63;;;6.47;;
26050;SDS011;13825;53.496;10.020;2022-10-31T13:33:24;11.27;;;6.87;;
26050;SDS011;13825;53.496;10.020;2022-10-31T13:36:04;16.87;;;7.10;;
26050;SDS011;13825;53.496;10.020;2022-10-31T13:38:42;12.37;;;6.40;;
26050;SDS011;13825;53.496;10.020;2022-10-31T13:41:20;10.97;;;6.87;;
26050;SDS011;13825;53.496;10.020;2022-10-31T13:43:59;8.83;;;6.33;;
26050;SDS011;13825;53.496;10.020;2022-10-31T13:46:34;13.27;;;7.10;;
26050;SDS011;13825;53.496;10.020;2022-10-31T13:49:04;11.63;;;6.23;;
26050;SDS011;13825;53.496;10.020;2022-10-31T13:51:50;15.63;;;6.37;;
26050;SDS011;13825;53.496;10.020;2022-10-31T13:54:20;10.83;;;6.53;;
26050;SDS011;13825;53.496;10.020;2022-10-31T13:56:51;10.87;;;6.97;;
26050;SDS011;13825;53.496;10.020;2022-10-31T13:59:21;13.10;;;7.63;;
26050;SDS011;13825;53.496;10.020;2022-10-31T14:01:50;10.13;;;6.80;;
26050;SDS011;13825;53.496;10.020;2022-10-31T14:04:22;12.67;;;7.20;;
26050;SDS011;13825;53.496;10.020;2022-10-31T14:06:55;11.07;;;7.03;;
26050;SDS011;13825;53.496;10.020;2022-10-31T14:09:33;11.20;;;6.80;;
26050;SDS011;13825;53.496;10.020;2022-10-31T14:12:03;12.83;;;7.47;;
26050;SDS011;13825;53.496;10.020;2022-10-31T14:14:39;11.97;;;6.87;;
26050;SDS011;13825;53.496;10.020;2022-10-31T14:17:18;12.53;;;7.43;;
26050;SDS011;13825;53.496;10.020;2022-10-31T14:20:03;12.70;;;7.30;;
26050;SDS011;13825;53.496;10.020;2022-10-31T14:22:51;12.87;;;7.47;;
26050;SDS011;13825;53.496;10.020;2022-10-31T14:25:25;11.97;;;7.03;;
26050;SDS011;13825;53.496;10.020;2022-10-31T14:27:55;11.00;;;7.47;;
26050;SDS011;13825;53.496;10.020;2022-10-31T14:30:23;13.33;;;7.87;;
26050;SDS011;13825;53.496;10.020;2022-10-31T14:32:53;16.03;;;8.17;;
26050;SDS011;13825;53.496;10.020;2022-10-31T14:35:25;12.77;;;7.30;;
26050;SDS011;13825;53.496;10.020;2022-10-31T14:38:10;14.40;;;7.07;;
26050;SDS011;13825;53.496;10.020;2022-10-31T14:40:51;11.60;;;7.40;;
26050;SDS011;13825;53.496;10.020;2022-10-31T14:43:41;11.40;;;7.57;;
26050;SDS011;13825;53.496;10.020;2022-10-31T14:46:22;15.37;;;8.17;;
26050;SDS011;13825;53.496;10.020;2022-10-31T14:49:05;14.03;;;7.87;;
26050;SDS011;13825;53.496;10.020;2022-10-31T14:51:48;12.57;;;7.47;;
26050;SDS011;13825;53.496;10.020;2022-10-31T14:54:19;16.70;;;8.33;;
26050;SDS011;13825;53.496;10.020;2022-10-31T14:56:51;12.97;;;7.73;;
26050;SDS011;13825;53.496;10.020;2022-10-31T14:59:20;13.37;;;8.00;;
26050;SDS011;13825;53.496;10.020;2022-10-31T15:01:53;18.47;;;8.30;;
26050;SDS011;13825;53.496;10.020;2022-10-31T15:04:23;14.87;;;8.80;;
26050;SDS011;13825;53.496;10.020;2022-10-31T15:06:57;15.07;;;8.10;;
26050;SDS011;13825;53.496;10.020;2022-10-31T15:09:29;12.83;;;7.43;;
26050;SDS011;13825;53.496;10.020;2022-10-31T15:11:58;17.67;;;8.90;;
26050;SDS011;13825;53.496;10.020;2022-10-31T15:14:43;17.37;;;8.77;;
26050;SDS011;13825;53.496;10.020;2022-10-31T15:17:10;15.73;;;9.00;;
26050;SDS011;13825;53.496;10.020;2022-10-31T15:19:38;17.00;;;10.33;;
26050;SDS011;13825;53.496;10.020;2022-10-31T15:22:07;20.03;;;10.27;;
26050;SDS011;13825;53.496;10.020;2022-10-31T15:24:41;19.70;;;10.80;;
26050;SDS011;13825;53.496;10.020;2022-10-31T15:27:10;19.40;;;10.60;;
26050;SDS011;13825;53.496;10.020;2022-10-31T15:29:47;22.90;;;9.77;;
26050;SDS011;13825;53.496;10.020;2022-10-31T15:32:18;15.87;;;10.30;;
26050;SDS011;13825;53.496;10.020;2022-10-31T15:34:49;18.37;;;10.77;;
26050;SDS011;13825;53.496;10.020;2022-10-31T15:37:19;20.33;;;10.83;;